Time;durP1;ratioP1;P1;durP2;ratioP2;P2;SDS_P1;SDS_P2;PMS_P1;PMS_P2;Temp;Humidity;BMP_temperature;BMP_pressure;BME280_temperature;BME280_humidity;BME280_pressure;Samples;Min_cycle;Max_cycle;Signal;HPM_P1;HPM_P2
2021/05/27 00:02:34;;;;;;;6.35;1.92;;;;;;;17.10;60.45;100492.75;5145667;27;20038;-80
2021/05/27 00:05:39;;;;;;;8.50;2.17;;;;;;;17.05;60.88;100488.84;5143467;27;20042;-81
2021/05/27 00:08:43;;;;;;;5.72;2.13;;;;;;;17.01;61.33;100488.34;5143807;27;20042;-81
2021/05/27 00:11:49;;;;;;;7.20;1.90;;;;;;;17.04;61.14;100488.00;5144951;27;20049;-80
2021/05/27 00:14:54;;;;;;;7.72;1.83;;;;;;;16.99;61.29;100486.81;5145199;27;20046;-80
2021/05/27 00:17:58;;;;;;;6.90;2.00;;;;;;;17.00;61.13;100494.81;5123567;27;20049;-80
2021/05/27 00:21:03;;;;;;;7.90;2.50;;;;;;;16.92;61.74;100492.09;5144667;27;20062;-81
2021/05/27 00:24:08;;;;;;;8.52;2.38;;;;;;;16.71;61.87;100494.50;5145117;27;20366;-81
2021/05/27 00:27:12;;;;;;;6.35;1.60;;;;;;;16.63;61.38;100498.06;5145210;27;20412;-82
2021/05/27 00:30:17;;;;;;;5.25;1.70;;;;;;;16.51;61.45;100493.13;5132683;27;20049;-81
2021/05/27 00:33:22;;;;;;;4.82;1.77;;;;;;;16.42;61.44;100477.91;5143256;27;20054;-80
2021/05/27 00:36:26;;;;;;;6.93;1.83;;;;;;;16.39;61.40;100483.66;5145133;27;20050;-81
2021/05/27 00:39:35;;;;;;;5.43;1.65;;;;;;;16.25;61.25;100479.72;5145183;27;20054;-80
2021/05/27 00:42:40;;;;;;;7.28;1.92;;;;;;;16.12;61.66;100485.63;5143774;27;20046;-79
2021/05/27 00:45:44;;;;;;;8.20;2.25;;;;;;;16.00;62.39;100478.00;5131922;27;20065;-81
2021/05/27 00:49:01;;;;;;;8.07;2.05;;;;;;;15.97;63.38;100479.16;5132439;27;20046;-81
2021/05/27 00:52:06;;;;;;;8.40;2.10;;;;;;;15.78;64.16;100487.59;5144542;27;20137;-82
2021/05/27 00:55:11;;;;;;;6.28;1.98;;;;;;;15.63;65.63;100481.09;5144704;27;20058;-79
2021/05/27 00:58:18;;;;;;;8.20;1.90;;;;;;;15.59;66.06;100486.00;5144894;27;20034;-80
2021/05/27 01:01:23;;;;;;;4.22;1.58;;;;;;;15.57;66.15;100474.50;5143929;27;20046;-81
2021/05/27 01:04:28;;;;;;;6.35;1.88;;;;;;;15.54;66.75;100479.38;5132115;27;20038;-80
2021/05/27 01:07:33;;;;;;;6.80;1.83;;;;;;;15.67;65.92;100468.97;5142757;27;20517;-81
2021/05/27 01:10:39;;;;;;;10.43;2.15;;;;;;;15.71;66.11;100472.16;5131040;27;20054;-81
2021/05/27 01:13:45;;;;;;;8.82;3.15;;;;;;;15.68;66.44;100473.34;5144125;27;20054;-81
2021/05/27 01:16:49;;;;;;;9.32;2.53;;;;;;;15.59;66.08;100467.06;5132099;27;20054;-81
2021/05/27 01:19:54;;;;;;;9.32;2.47;;;;;;;15.66;66.73;100469.97;5144746;27;20050;-80
2021/05/27 01:22:59;;;;;;;9.25;2.17;;;;;;;15.72;66.04;100466.59;5143423;27;20501;-82
2021/05/27 01:26:04;;;;;;;6.45;1.83;;;;;;;15.82;66.04;100463.75;5144047;27;20386;-80
2021/05/27 01:29:09;;;;;;;9.27;2.13;;;;;;;15.92;65.62;100473.44;5144908;27;20042;-81
2021/05/27 01:32:13;;;;;;;7.10;2.10;;;;;;;15.85;66.18;100464.25;5132351;27;20042;-82
2021/05/27 01:35:23;;;;;;;6.32;1.95;;;;;;;15.85;65.65;100472.38;5143297;27;20508;-80
2021/05/27 01:38:29;;;;;;;6.95;2.22;;;;;;;15.78;66.14;100475.91;5144294;27;20039;-81
2021/05/27 01:41:37;;;;;;;8.90;2.80;;;;;;;15.75;66.44;100455.44;5132050;27;20050;-81
2021/05/27 01:44:42;;;;;;;5.90;2.45;;;;;;;15.67;66.55;100465.41;5145464;27;20495;-81
2021/05/27 01:47:47;;;;;;;8.32;2.45;;;;;;;15.67;67.02;100458.13;5148139;27;20069;-81
2021/05/27 01:50:52;;;;;;;11.85;2.35;;;;;;;15.73;66.88;100459.31;5148152;27;20389;-81
2021/05/27 01:54:07;;;;;;;9.77;2.47;;;;;;;15.82;66.52;100469.16;5135254;27;20046;-82
2021/05/27 01:57:21;;;;;;;6.60;2.35;;;;;;;15.92;66.18;100459.91;5051245;28;20164;-81
2021/05/27 02:00:11;;;;;;;9.48;2.17;;;;;;;15.96;66.74;100461.25;5052716;28;20148;-80
2021/05/27 02:03:33;;;;;;;6.63;1.98;;;;;;;15.86;66.99;100456.97;5052701;28;20602;-81
2021/05/27 02:06:48;;;;;;;5.68;2.30;;;;;;;15.84;67.29;100457.16;5040531;28;20408;-80
2021/05/27 02:09:56;;;;;;;7.50;2.17;;;;;;;15.68;67.21;100457.09;5041498;28;20052;-79
2021/05/27 02:13:05;;;;;;;7.70;2.05;;;;;;;15.62;66.73;100455.06;5040627;28;20060;-81
2021/05/27 02:16:09;;;;;;;8.57;2.20;;;;;;;15.53;65.88;100448.78;5040722;28;20064;-81
2021/05/27 02:19:14;;;;;;;6.25;2.35;;;;;;;15.43;66.24;100452.63;5041160;28;20048;-80
2021/05/27 02:22:21;;;;;;;8.23;1.92;;;;;;;15.49;66.32;100444.72;5041395;28;20452;-80
2021/05/27 02:25:40;;;;;;;8.45;2.00;;;;;;;15.50;65.95;100442.84;5039243;28;20060;-80
2021/05/27 02:28:51;;;;;;;8.20;1.92;;;;;;;15.57;65.86;100447.47;5052002;28;20068;-81
2021/05/27 02:31:57;;;;;;;8.57;2.38;;;;;;;15.62;66.16;100446.97;5038697;28;20052;-82
2021/05/27 02:35:03;;;;;;;6.97;2.40;;;;;;;15.63;65.88;100435.94;5144405;27;20049;-81
2021/05/27 02:38:08;;;;;;;6.70;1.90;;;;;;;15.56;65.75;100442.19;5134611;27;20086;-80
2021/05/27 02:41:17;;;;;;;4.97;1.70;;;;;;;15.60;65.58;100443.56;5134562;27;20500;-81
2021/05/27 02:44:22;;;;;;;8.15;2.55;;;;;;;15.56;66.73;100439.47;5120077;27;20092;-81
2021/05/27 02:47:30;;;;;;;11.82;2.65;;;;;;;15.57;66.13;100443.91;5134352;27;20042;-82
2021/05/27 02:50:34;;;;;;;8.15;2.72;;;;;;;15.57;66.18;100442.03;5147293;27;20041;-81
2021/05/27 02:53:45;;;;;;;10.60;2.75;;;;;;;15.49;66.68;100443.84;5134249;27;20053;-81
2021/05/27 02:56:51;;;;;;;8.45;2.55;;;;;;;15.26;68.09;100440.00;5145993;27;20100;-81
2021/05/27 02:59:59;;;;;;;7.85;2.28;;;;;;;15.30;67.80;100441.41;5132511;27;20042;-79
2021/05/27 03:03:21;;;;;;;7.65;2.22;;;;;;;15.18;68.78;100434.59;5145355;27;20148;-80
2021/05/27 03:06:26;;;;;;;8.15;2.13;;;;;;;15.11;68.86;100434.38;5145914;27;20034;-81
2021/05/27 03:09:31;;;;;;;9.75;2.40;;;;;;;15.04;69.69;100429.75;5134531;27;20046;-80
2021/05/27 03:12:36;;;;;;;8.95;2.50;;;;;;;15.00;69.83;100437.38;5134501;27;20042;-81
2021/05/27 03:15:42;;;;;;;7.65;2.13;;;;;;;14.90;70.40;100442.88;5132889;27;20081;-81
2021/05/27 03:18:49;;;;;;;8.30;2.20;;;;;;;14.89;70.57;100430.38;5133415;27;20501;-80
2021/05/27 03:21:54;;;;;;;7.15;2.20;;;;;;;14.80;70.20;100435.88;5146355;27;20500;-81
2021/05/27 03:25:00;;;;;;;8.07;3.30;;;;;;;14.82;70.44;100442.84;5130554;27;20061;-81
2021/05/27 03:28:04;;;;;;;5.45;2.10;;;;;;;14.82;71.04;100432.03;5145152;27;20050;-81
2021/05/27 03:31:10;;;;;;;9.55;2.17;;;;;;;14.79;70.28;100437.75;5133207;27;20043;-81
2021/05/27 03:34:18;;;;;;;8.30;2.13;;;;;;;14.77;69.93;100437.06;5131591;27;20050;-81
2021/05/27 03:37:23;;;;;;;10.88;2.40;;;;;;;14.77;70.47;100444.31;5144756;27;20046;-82
2021/05/27 03:40:27;;;;;;;9.15;2.38;;;;;;;14.83;69.85;100444.53;5132823;27;20058;-79
2021/05/27 03:43:32;;;;;;;6.38;2.13;;;;;;;14.84;70.31;100440.81;5130361;27;20054;-81
2021/05/27 03:46:37;;;;;;;7.75;2.50;;;;;;;14.79;69.42;100432.34;5146263;27;20393;-79
2021/05/27 03:49:41;;;;;;;9.88;2.20;;;;;;;14.92;69.51;100443.56;5144499;27;20397;-81
2021/05/27 03:52:48;;;;;;;4.40;2.10;;;;;;;14.96;69.28;100454.91;5132835;27;20050;-80
2021/05/27 03:55:53;;;;;;;9.50;2.10;;;;;;;14.95;69.15;100458.63;5145487;27;20057;-81
2021/05/27 04:02:51;;;;;;;6.68;2.22;;;;;;;14.99;67.92;100459.97;5145581;27;20046;-81
2021/05/27 04:09:41;;;;;;;5.90;2.10;;;;;;;15.02;66.30;100461.53;5135417;27;20177;-82
2021/05/27 04:12:46;;;;;;;7.55;2.13;;;;;;;15.11;66.41;100465.97;5144693;27;20050;-82
2021/05/27 04:16:06;;;;;;;5.55;1.90;;;;;;;15.22;64.49;100457.56;5144778;27;20039;-81
2021/05/27 04:19:11;;;;;;;4.15;1.70;;;;;;;15.10;62.38;100453.47;5144435;27;20401;-82
2021/05/27 04:22:15;;;;;;;5.88;1.60;;;;;;;15.16;62.64;100460.94;5145798;27;20050;-82
2021/05/27 04:25:21;;;;;;;4.90;1.40;;;;;;;15.10;62.17;100461.56;5145525;27;20038;-82
2021/05/27 04:28:25;;;;;;;6.53;1.60;;;;;;;15.18;61.51;100458.91;5129727;27;20050;-80
2021/05/27 04:31:29;;;;;;;4.40;1.98;;;;;;;15.14;61.48;100468.34;5144956;27;20508;-82
2021/05/27 04:34:34;;;;;;;5.30;1.60;;;;;;;15.14;61.54;100476.44;5145067;27;20053;-80
2021/05/27 04:37:38;;;;;;;7.25;1.98;;;;;;;15.25;61.39;100471.63;5143219;27;20038;-80
2021/05/27 04:40:48;;;;;;;5.88;2.13;;;;;;;15.43;60.77;100471.56;5132534;27;20393;-81
2021/05/27 04:43:54;;;;;;;9.32;1.85;;;;;;;15.81;59.61;100460.19;5145131;27;20045;-80
2021/05/27 04:46:59;;;;;;;9.32;1.50;;;;;;;16.19;57.95;100456.03;5143490;27;20050;-82
2021/05/27 04:50:06;;;;;;;7.57;1.70;;;;;;;16.68;55.88;100470.44;5143717;27;20497;-82
2021/05/27 04:53:10;;;;;;;4.35;1.58;;;;;;;17.04;53.86;100457.31;5145087;27;20046;-79
2021/05/27 04:56:14;;;;;;;6.40;1.63;;;;;;;17.45;52.24;100462.44;5144580;27;20511;-81
2021/05/27 04:59:19;;;;;;;5.88;1.38;;;;;;;17.74;51.27;100452.84;5143100;27;20050;-81
2021/05/27 05:02:23;;;;;;;22.15;15.23;;;;;;;18.23;50.25;100462.38;5133983;27;20042;-77
2021/05/27 05:05:29;;;;;;;60.50;43.92;;;;;;;18.54;49.46;100463.16;5155229;27;20043;-80
2021/05/27 05:08:33;;;;;;;4.47;2.05;;;;;;;18.60;49.28;100465.16;5155181;27;20039;-79
2021/05/27 05:11:37;;;;;;;7.85;1.83;;;;;;;18.91;49.68;100467.75;5155196;27;20050;-79
2021/05/27 05:14:41;;;;;;;6.80;1.75;;;;;;;19.37;49.01;100468.47;5155003;27;20053;-81
2021/05/27 05:17:58;;;;;;;5.72;1.58;;;;;;;19.90;47.07;100467.25;5155171;27;20366;-79
2021/05/27 05:21:04;;;;;;;8.73;2.13;;;;;;;20.26;45.92;100470.84;5159063;27;20389;-79
2021/05/27 05:24:09;;;;;;;9.00;1.70;;;;;;;20.93;44.13;100471.22;5159038;27;20054;-80
2021/05/27 05:27:13;;;;;;;5.40;1.67;;;;;;;21.49;43.05;100469.28;5158898;27;20054;-79
2021/05/27 05:30:18;;;;;;;6.10;1.70;;;;;;;21.86;41.80;100468.84;5141428;27;20054;-81
2021/05/27 05:33:22;;;;;;;4.88;1.30;;;;;;;22.55;40.64;100471.31;5143306;27;20046;-80
2021/05/27 05:36:26;;;;;;;4.40;1.45;;;;;;;23.25;39.20;100466.06;5159037;27;20050;-79
2021/05/27 05:39:31;;;;;;;11.00;1.90;;;;;;;23.73;38.07;100466.56;5158468;27;20053;-79
2021/05/27 05:42:37;;;;;;;6.07;1.50;;;;;;;24.71;37.02;100464.31;5135322;27;20050;-80
2021/05/27 05:45:41;;;;;;;8.95;1.77;;;;;;;26.05;34.62;100457.78;5158293;27;20054;-78
2021/05/27 05:48:45;;;;;;;9.32;1.65;;;;;;;27.48;32.28;100461.22;5158613;27;20050;-79
2021/05/27 05:51:50;;;;;;;8.40;1.80;;;;;;;27.42;31.62;100465.78;5155512;27;20065;-79
2021/05/27 05:54:54;;;;;;;9.27;2.45;;;;;;;28.06;30.53;100456.41;5140245;27;20417;-78
2021/05/27 05:58:00;;;;;;;7.78;1.50;;;;;;;27.94;30.37;100457.50;5137646;27;20042;-80
2021/05/27 06:01:05;;;;;;;10.82;1.85;;;;;;;28.65;30.12;100455.03;5137315;27;20050;-79
2021/05/27 06:04:09;;;;;;;5.97;1.60;;;;;;;28.75;29.62;100460.75;5134526;27;20050;-80
2021/05/27 06:07:24;;;;;;;3.78;1.40;;;;;;;29.82;28.91;100460.44;5142630;27;20066;-79
2021/05/27 06:10:29;;;;;;;4.95;1.83;;;;;;;30.27;28.08;100464.56;5156109;27;20042;-80
2021/05/27 06:13:34;;;;;;;5.82;1.50;;;;;;;30.08;28.29;100465.16;5155540;27;20057;-80
2021/05/27 06:16:38;;;;;;;10.32;1.52;;;;;;;31.34;26.99;100463.56;5155544;27;20065;-80
2021/05/27 06:19:43;;;;;;;5.03;1.90;;;;;;;31.85;26.27;100465.53;5156277;27;20046;-80
2021/05/27 06:22:56;;;;;;;7.88;1.60;;;;;;;32.70;25.37;100459.41;5143704;27;20045;-79
2021/05/27 06:26:00;;;;;;;3.85;1.20;;;;;;;33.91;24.09;100461.16;5156988;27;20045;-79
2021/05/27 06:29:05;;;;;;;6.75;1.50;;;;;;;33.83;24.32;100465.38;5157966;27;20504;-80
2021/05/27 06:32:09;;;;;;;5.50;1.42;;;;;;;33.32;25.00;100469.41;5156981;27;20053;-79
2021/05/27 06:35:15;;;;;;;6.25;1.75;;;;;;;33.65;24.66;100477.16;5144966;27;20053;-77
2021/05/27 06:38:19;;;;;;;4.47;1.48;;;;;;;33.97;23.60;100471.97;5157610;27;20065;-78
2021/05/27 06:41:24;;;;;;;5.22;1.20;;;;;;;35.67;22.50;100473.78;5157633;27;20050;-80
2021/05/27 06:44:28;;;;;;;4.30;1.42;;;;;;;37.73;20.36;100463.25;5157265;27;20050;-79
2021/05/27 06:47:33;;;;;;;6.85;1.55;;;;;;;39.45;18.02;100469.31;5157556;27;20053;-80
2021/05/27 06:50:39;;;;;;;4.30;1.40;;;;;;;36.61;20.43;100469.19;5157478;27;20054;-77
2021/05/27 06:53:44;;;;;;;4.55;1.55;;;;;;;33.50;23.97;100482.75;5157263;27;20053;-79
2021/05/27 06:56:58;;;;;;;6.18;1.70;;;;;;;32.91;24.44;100473.31;5135122;27;20050;-78
2021/05/27 07:00:06;;;;;;;6.15;1.65;;;;;;;32.07;25.22;100468.97;5136421;27;20497;-78
2021/05/27 07:03:12;;;;;;;5.00;1.50;;;;;;;31.95;25.36;100473.06;5135504;27;20045;-79
2021/05/27 07:06:16;;;;;;;5.07;1.70;;;;;;;31.70;26.50;100484.91;5136527;27;20477;-78
2021/05/27 07:09:21;;;;;;;7.07;1.40;;;;;;;33.33;24.08;100482.22;5135422;27;20050;-79
2021/05/27 07:12:25;;;;;;;8.38;2.00;;;;;;;32.64;24.84;100490.28;5136187;27;20042;-78
2021/05/27 07:15:30;;;;;;;9.65;2.20;;;;;;;31.12;27.47;100496.16;5136379;27;20046;-78
2021/05/27 07:18:34;;;;;;;8.98;2.08;;;;;;;32.45;25.52;100480.75;5136005;27;20046;-79
2021/05/27 07:21:40;;;;;;;10.32;5.82;;;;;;;34.56;23.36;100480.38;5135990;27;20050;-79
2021/05/27 07:24:45;;;;;;;8.15;3.28;;;;;;;32.91;24.81;100481.66;5136006;27;20050;-79
2021/05/27 07:27:55;;;;;;;6.70;1.80;;;;;;;33.28;25.12;100479.44;5135937;27;20054;-79
2021/05/27 07:31:00;;;;;;;7.57;1.98;;;;;;;34.93;22.71;100485.38;5135852;27;20054;-79
2021/05/27 07:34:06;;;;;;;7.00;2.10;;;;;;;38.10;20.30;100479.03;5135898;27;20386;-79
2021/05/27 07:37:11;;;;;;;5.28;1.45;;;;;;;39.48;19.25;100491.09;5135803;27;20054;-79
2021/05/27 07:40:16;;;;;;;6.93;1.85;;;;;;;38.60;19.50;100482.69;5135678;27;20050;-79
2021/05/27 07:43:21;;;;;;;7.07;2.20;;;;;;;39.96;18.25;100479.09;5135396;27;20046;-79
2021/05/27 07:46:25;;;;;;;4.82;1.60;;;;;;;38.53;19.01;100480.34;5135515;27;20058;-79
2021/05/27 07:49:30;;;;;;;6.00;2.08;;;;;;;40.14;17.75;100470.41;5134525;27;20046;-79
2021/05/27 07:52:35;;;;;;;4.85;1.77;;;;;;;41.67;16.53;100464.13;5135472;27;20050;-79
2021/05/27 07:55:39;;;;;;;8.02;2.05;;;;;;;39.76;17.61;100480.53;5137360;27;20054;-79
2021/05/27 07:58:44;;;;;;;5.68;2.10;;;;;;;41.16;17.02;100468.75;5143261;27;20062;-79
2021/05/27 08:01:48;;;;;;;6.00;2.15;;;;;;;39.41;18.45;100479.50;5156071;27;20050;-79
2021/05/27 08:04:52;;;;;;;12.32;2.70;;;;;;;37.47;19.89;100479.78;5155927;27;20401;-79
2021/05/27 08:07:57;;;;;;;9.90;2.83;;;;;;;36.18;20.87;100481.53;5155898;27;20045;-79
2021/05/27 08:11:01;;;;;;;9.00;3.08;;;;;;;34.97;22.49;100480.03;5155922;27;20066;-79
2021/05/27 08:14:06;;;;;;;8.68;2.17;;;;;;;33.18;24.30;100480.25;5155791;27;20049;-79
2021/05/27 08:17:11;;;;;;;7.57;2.22;;;;;;;32.91;24.74;100487.22;5155520;27;20050;-78
2021/05/27 08:20:16;;;;;;;7.05;2.47;;;;;;;31.98;25.77;100486.44;5155796;27;20516;-79
2021/05/27 08:23:20;;;;;;;5.82;1.90;;;;;;;31.23;26.80;100479.31;5155677;27;20042;-78
2021/05/27 08:26:25;;;;;;;8.57;2.42;;;;;;;30.95;27.28;100476.91;5155661;27;20046;-79
2021/05/27 08:29:30;;;;;;;5.30;2.05;;;;;;;29.28;27.98;100470.47;5142854;27;20049;-78
2021/05/27 08:32:34;;;;;;;8.98;2.45;;;;;;;28.33;30.24;100459.41;5155783;27;20053;-79
2021/05/27 08:35:38;;;;;;;7.88;2.35;;;;;;;28.12;30.19;100457.34;5155509;27;20038;-78
2021/05/27 08:38:44;;;;;;;10.32;2.50;;;;;;;28.50;30.49;100454.75;5155162;27;20046;-78
2021/05/27 08:41:48;;;;;;;13.60;2.70;;;;;;;28.04;30.85;100450.31;5155464;27;20373;-79
2021/05/27 08:44:55;;;;;;;15.40;2.38;;;;;;;27.68;31.82;100456.97;5155325;27;20061;-79
2021/05/27 08:48:00;;;;;;;10.40;2.28;;;;;;;27.43;31.05;100447.31;5142603;27;20496;-78
2021/05/27 08:51:05;;;;;;;11.55;2.35;;;;;;;27.21;31.39;100452.56;5155325;27;20385;-78
2021/05/27 08:54:09;;;;;;;9.30;2.40;;;;;;;26.67;33.29;100450.94;5144047;27;20041;-78
2021/05/27 08:57:13;;;;;;;8.32;2.78;;;;;;;26.67;32.92;100452.84;5158882;27;20497;-79
2021/05/27 09:00:19;;;;;;;10.30;2.65;;;;;;;26.26;33.92;100448.22;5159540;27;20038;-78
2021/05/27 09:03:41;;;;;;;7.93;2.25;;;;;;;26.22;34.24;100442.34;5159572;27;20049;-78
2021/05/27 09:06:51;;;;;;;15.50;2.55;;;;;;;26.02;34.77;100444.53;5159148;27;20401;-79
2021/05/27 09:09:58;;;;;;;15.32;2.70;;;;;;;25.65;34.96;100440.97;5146634;27;20053;-79
2021/05/27 09:13:18;;;;;;;6.82;2.10;;;;;;;25.14;35.53;100440.47;5159337;27;20057;-78
2021/05/27 09:16:22;;;;;;;12.68;2.60;;;;;;;25.47;34.82;100420.91;5146752;27;20041;-79
2021/05/27 09:19:26;;;;;;;11.80;3.03;;;;;;;25.91;34.17;100425.19;5158917;27;20393;-78
2021/05/27 09:22:31;;;;;;;11.60;2.85;;;;;;;25.87;34.95;100424.84;5146285;27;20477;-80
2021/05/27 09:25:37;;;;;;;9.77;3.08;;;;;;;25.49;35.28;100425.09;5158923;27;20074;-78
2021/05/27 09:28:46;;;;;;;9.93;3.20;;;;;;;25.23;34.43;100422.66;5158965;27;20409;-78
2021/05/27 09:32:03;;;;;;;9.13;2.88;;;;;;;25.23;34.54;100413.56;5159009;27;20046;-78
2021/05/27 09:35:12;;;;;;;11.68;2.95;;;;;;;25.40;34.93;100411.88;5158921;27;20382;-78
2021/05/27 09:38:27;;;;;;;9.57;2.88;;;;;;;24.96;36.26;100413.00;5158830;27;20058;-78
2021/05/27 09:41:34;;;;;;;11.30;3.03;;;;;;;25.14;36.29;100416.59;5145912;27;20054;-78
2021/05/27 09:44:38;;;;;;;13.05;3.28;;;;;;;25.19;36.41;100413.16;5158647;27;20050;-80
2021/05/27 09:47:43;;;;;;;15.18;4.00;;;;;;;24.65;36.42;100415.78;5158209;27;20049;-78
2021/05/27 09:50:48;;;;;;;10.38;3.90;;;;;;;24.69;36.66;100426.06;5158535;27;20480;-78
2021/05/27 09:53:54;;;;;;;9.98;3.10;;;;;;;25.05;36.96;100426.22;5158548;27;20069;-78
2021/05/27 09:56:59;;;;;;;11.02;4.45;;;;;;;24.88;36.82;100424.25;5136010;27;20050;-78
2021/05/27 10:00:05;;;;;;;12.40;3.83;;;;;;;24.55;37.73;100427.25;5136568;27;20058;-79
2021/05/27 10:03:30;;;;;;;11.55;4.03;;;;;;;24.85;37.79;100421.97;5137590;27;20058;-79
2021/05/27 10:06:34;;;;;;;7.82;3.80;;;;;;;25.13;37.51;100414.09;5137199;27;20050;-78
2021/05/27 10:09:39;;;;;;;9.30;3.80;;;;;;;25.07;36.94;100415.81;5137430;27;20054;-79
2021/05/27 10:12:46;;;;;;;10.45;3.72;;;;;;;24.94;37.02;100415.09;5137417;27;20046;-78
2021/05/27 10:15:51;;;;;;;12.52;4.93;;;;;;;24.66;37.26;100426.56;5137324;27;20050;-78
2021/05/27 10:18:57;;;;;;;14.45;4.53;;;;;;;24.33;38.19;100418.56;5137356;27;20378;-78
2021/05/27 10:22:01;;;;;;;17.40;4.75;;;;;;;24.35;38.01;100418.34;5137231;27;20062;-78
2021/05/27 10:25:08;;;;;;;10.73;4.57;;;;;;;24.62;38.59;100416.22;5136309;27;20054;-78
2021/05/27 10:28:17;;;;;;;9.98;4.75;;;;;;;24.62;38.68;100410.72;5137089;27;20050;-78
2021/05/27 10:31:25;;;;;;;9.27;4.70;;;;;;;24.67;38.00;100413.63;5137093;27;20062;-79
2021/05/27 10:34:42;;;;;;;12.93;5.38;;;;;;;24.74;39.06;100408.97;5136157;27;20393;-79
2021/05/27 10:37:50;;;;;;;9.23;4.68;;;;;;;24.49;38.57;100400.72;5136836;27;20050;-78
2021/05/27 10:40:55;;;;;;;10.93;4.70;;;;;;;24.46;39.66;100407.50;5136805;27;20042;-78
2021/05/27 10:44:00;;;;;;;12.00;5.43;;;;;;;24.41;39.34;100398.25;5136812;27;20038;-79
2021/05/27 10:47:07;;;;;;;15.43;6.07;;;;;;;24.36;40.05;100393.44;5136724;27;20051;-78
2021/05/27 10:50:11;;;;;;;9.35;4.88;;;;;;;24.27;39.79;100391.19;5136659;27;20050;-79
2021/05/27 10:53:40;;;;;;;10.55;5.00;;;;;;;24.18;40.17;100401.59;5136611;27;20050;-79
2021/05/27 10:56:49;;;;;;;12.77;4.88;;;;;;;24.24;39.54;100388.88;5145514;27;20054;-78
2021/05/27 10:59:53;;;;;;;10.30;5.55;;;;;;;24.30;40.00;100390.72;5157208;27;20054;-78
2021/05/27 11:03:35;;;;;;;11.27;5.20;;;;;;;24.15;39.57;100377.31;5157046;27;20057;-78
2021/05/27 11:06:40;;;;;;;13.73;5.00;;;;;;;24.08;40.36;100372.94;5144285;27;20057;-79
2021/05/27 11:09:48;;;;;;;11.52;4.13;;;;;;;24.15;41.82;100376.47;5144430;27;20508;-78
2021/05/27 11:13:03;;;;;;;10.70;4.55;;;;;;;24.04;40.63;100379.91;5156937;27;20049;-78
2021/05/27 11:16:07;;;;;;;13.82;5.05;;;;;;;24.04;41.11;100379.91;5156484;27;20066;-79
2021/05/27 11:19:48;;;;;;;11.80;4.55;;;;;;;24.00;40.48;100381.44;5157126;27;20377;-78
2021/05/27 11:23:02;;;;;;;12.35;5.47;;;;;;;24.01;41.87;100380.34;5144023;27;20401;-78
2021/05/27 11:26:18;;;;;;;8.63;4.30;;;;;;;24.23;42.70;100376.22;5156508;27;20045;-79
2021/05/27 11:29:23;;;;;;;11.60;4.95;;;;;;;24.36;42.25;100374.22;5143913;27;20061;-79
2021/05/27 11:32:36;;;;;;;11.48;4.25;;;;;;;24.38;40.88;100382.22;5156499;27;20046;-78
2021/05/27 11:35:44;;;;;;;8.32;4.65;;;;;;;24.39;41.09;100372.94;5156531;27;20045;-78
2021/05/27 11:38:49;;;;;;;9.98;5.13;;;;;;;24.39;41.42;100364.72;5156314;27;20066;-78
2021/05/27 11:41:54;;;;;;;9.60;4.75;;;;;;;24.48;42.12;100372.44;5156405;27;20057;-79
2021/05/27 11:45:02;;;;;;;16.15;6.70;;;;;;;24.06;41.99;100364.06;5156172;27;20066;-79
2021/05/27 11:51:29;;;;;;;13.13;5.00;;;;;;;24.18;43.33;100360.44;5156293;27;20054;-78
2021/05/27 11:54:34;;;;;;;13.13;4.50;;;;;;;24.24;42.20;100359.56;5143087;27;20053;-79
2021/05/27 11:57:45;;;;;;;12.10;5.03;;;;;;;24.22;42.97;100360.84;5155403;27;20061;-78
2021/05/27 12:00:49;;;;;;;12.20;4.80;;;;;;;24.33;40.93;100351.88;5143633;27;20377;-78
2021/05/27 12:04:11;;;;;;;12.95;4.78;;;;;;;24.27;41.54;100344.56;5156010;27;20047;-78
2021/05/27 12:07:17;;;;;;;11.05;4.05;;;;;;;24.27;40.61;100342.63;5155877;27;20050;-78
2021/05/27 12:10:22;;;;;;;10.82;3.85;;;;;;;24.36;40.61;100334.97;5156000;27;20512;-79
2021/05/27 12:13:26;;;;;;;10.18;4.55;;;;;;;24.23;40.14;100335.06;5155835;27;20058;-79
2021/05/27 12:16:35;;;;;;;13.18;4.95;;;;;;;24.18;40.25;100335.75;5155695;27;20050;-79
2021/05/27 12:19:47;;;;;;;10.82;3.38;;;;;;;24.30;41.11;100338.59;5155826;27;20053;-79
2021/05/27 12:23:03;;;;;;;11.48;4.32;;;;;;;24.40;41.04;100334.28;5155812;27;20069;-79
2021/05/27 12:26:08;;;;;;;9.57;3.92;;;;;;;24.43;41.17;100325.63;5155586;27;20045;-78
2021/05/27 12:29:12;;;;;;;10.27;5.00;;;;;;;24.42;41.78;100317.59;5154774;27;20054;-78
2021/05/27 12:32:17;;;;;;;9.95;5.22;;;;;;;24.25;41.39;100308.25;5155861;27;20480;-79
2021/05/27 12:35:32;;;;;;;15.80;4.10;;;;;;;24.44;42.72;100316.28;5142869;27;20053;-78
2021/05/27 12:38:47;;;;;;;12.85;4.22;;;;;;;24.45;42.07;100317.13;5155461;27;20038;-79
2021/05/27 12:41:51;;;;;;;7.47;3.97;;;;;;;24.53;42.11;100322.34;5155461;27;20049;-79
2021/05/27 12:44:56;;;;;;;8.82;4.50;;;;;;;24.60;41.67;100314.88;5155445;27;20058;-80
2021/05/27 12:48:14;;;;;;;11.80;3.67;;;;;;;24.77;41.23;100309.63;5155380;27;20046;-78
2021/05/27 12:51:20;;;;;;;10.43;3.78;;;;;;;24.94;41.78;100305.25;5155516;27;20411;-78
2021/05/27 12:54:25;;;;;;;10.15;3.67;;;;;;;24.99;40.54;100300.75;5155384;27;20050;-78
2021/05/27 12:57:29;;;;;;;8.82;4.18;;;;;;;24.97;40.20;100297.41;5154795;27;20100;-78
2021/05/27 13:00:48;;;;;;;14.18;4.25;;;;;;;24.95;41.50;100296.78;5155312;27;20069;-78
2021/05/27 13:03:53;;;;;;;11.70;4.63;;;;;;;24.79;40.13;100283.66;5142667;27;20052;-79
2021/05/27 13:07:12;;;;;;;9.98;4.45;;;;;;;24.87;40.54;100282.50;5155237;27;20046;-79
2021/05/27 13:10:38;;;;;;;8.77;3.83;;;;;;;25.00;40.19;100282.38;5155212;27;20050;-80
2021/05/27 13:13:42;;;;;;;10.20;3.42;;;;;;;24.97;39.73;100272.69;5155295;27;20050;-79
2021/05/27 13:16:54;;;;;;;8.98;4.03;;;;;;;24.87;39.93;100271.53;5155274;27;20389;-79
2021/05/27 13:19:59;;;;;;;15.50;4.20;;;;;;;25.03;40.84;100262.69;5142484;27;20385;-79
2021/05/27 13:23:40;;;;;;;9.38;3.50;;;;;;;25.09;40.40;100259.00;5155144;27;20847;-78
2021/05/27 13:26:58;;;;;;;7.32;3.15;;;;;;;25.13;40.15;100261.03;5155048;27;20381;-79
2021/05/27 13:30:06;;;;;;;8.32;2.53;;;;;;;25.26;40.56;100256.47;5155145;27;20041;-79
2021/05/27 13:33:11;;;;;;;10.07;3.53;;;;;;;25.26;41.80;100248.22;5155333;27;20046;-79
2021/05/27 13:36:22;;;;;;;8.88;3.00;;;;;;;25.25;41.38;100247.38;5155028;27;20054;-79
2021/05/27 13:39:27;;;;;;;12.13;3.20;;;;;;;25.21;41.79;100244.25;5154967;27;20053;-79
2021/05/27 13:42:32;;;;;;;10.93;2.83;;;;;;;25.33;41.34;100243.47;5158859;27;20164;-79
2021/05/27 13:45:36;;;;;;;7.68;2.60;;;;;;;25.34;39.87;100239.63;5158676;27;20046;-79
2021/05/27 13:48:41;;;;;;;8.68;2.60;;;;;;;25.38;40.00;100241.69;5158951;27;20413;-79
2021/05/27 13:51:47;;;;;;;9.80;2.72;;;;;;;25.54;40.17;100241.06;5158587;27;20050;-80
2021/05/27 13:54:54;;;;;;;6.50;2.78;;;;;;;25.65;39.97;100245.75;5158361;27;20050;-79
2021/05/27 13:58:02;;;;;;;9.75;2.63;;;;;;;25.73;39.79;100244.56;5125256;27;20062;-78
2021/05/27 14:01:07;;;;;;;9.90;3.85;;;;;;;25.80;40.00;100232.38;5137363;27;20054;-79
2021/05/27 14:04:11;;;;;;;7.80;3.80;;;;;;;25.80;40.34;100248.06;5137550;27;20055;-79
2021/05/27 14:07:15;;;;;;;10.68;3.70;;;;;;;25.77;41.01;100243.88;5137445;27;20046;-79
2021/05/27 14:10:21;;;;;;;16.65;4.70;;;;;;;25.74;39.80;100233.34;5137170;27;20096;-79
2021/05/27 14:13:25;;;;;;;11.80;3.65;;;;;;;25.66;40.68;100232.84;5136306;27;20062;-79
2021/05/27 14:16:29;;;;;;;12.13;4.70;;;;;;;25.55;39.82;100231.75;5137441;27;20394;-80
2021/05/27 14:19:33;;;;;;;11.88;4.38;;;;;;;25.48;39.96;100222.75;5137996;27;20050;-79
2021/05/27 14:22:39;;;;;;;10.60;4.22;;;;;;;25.28;40.58;100216.69;5137283;27;20046;-79
2021/05/27 14:25:44;;;;;;;12.52;3.42;;;;;;;25.45;41.75;100214.16;5136940;27;20061;-79
2021/05/27 14:28:48;;;;;;;10.15;4.30;;;;;;;25.40;40.40;100200.25;5137095;27;20054;-79
2021/05/27 14:31:54;;;;;;;15.23;4.05;;;;;;;25.37;41.00;100197.94;5137106;27;20046;-79
2021/05/27 14:34:59;;;;;;;14.30;4.07;;;;;;;25.48;42.07;100191.69;5137055;27;20050;-79
2021/05/27 14:38:03;;;;;;;11.95;2.90;;;;;;;25.60;42.11;100192.56;5137012;27;20481;-79